createdAt,value
2023-04-16T00:01:35.829Z,9.55
2023-04-16T00:04:08.892Z,9.58
2023-04-16T00:06:47.204Z,9.61
2023-04-16T00:09:28.466Z,9.66
2023-04-16T00:12:07.265Z,9.72
2023-04-16T00:14:46.136Z,9.79
2023-04-16T00:17:18.791Z,9.81
2023-04-16T00:19:50.548Z,9.76
2023-04-16T00:22:27.041Z,9.76
2023-04-16T00:25:04.357Z,9.61
2023-04-16T00:27:49.272Z,9.67
2023-04-16T00:30:23.285Z,9.70
2023-04-16T00:33:00.925Z,9.68
2023-04-16T00:35:35.490Z,9.64
2023-04-16T00:38:11.413Z,9.67
2023-04-16T00:40:48.496Z,9.63
2023-04-16T00:43:33.767Z,9.61
2023-04-16T00:46:11.971Z,9.65
2023-04-16T00:48:49.462Z,9.70
2023-04-16T00:51:22.843Z,9.72
2023-04-16T00:53:55.773Z,9.62
2023-04-16T00:56:34.447Z,9.25
2023-04-16T00:59:09.231Z,9.27
2023-04-16T01:01:42.796Z,9.33
2023-04-16T01:04:15.139Z,9.57
2023-04-16T01:06:47.848Z,9.44
2023-04-16T01:09:20.414Z,9.47
2023-04-16T01:11:52.783Z,9.54
2023-04-16T01:14:40.840Z,9.53
2023-04-16T01:17:16.086Z,9.57
2023-04-16T01:19:48.121Z,9.55
2023-04-16T01:22:27.892Z,9.55
2023-04-16T01:25:03.331Z,9.50
2023-04-16T01:27:38.065Z,9.56
2023-04-16T01:30:11.707Z,9.64
2023-04-16T01:32:44.110Z,9.47
2023-04-16T01:35:18.636Z,9.50
2023-04-16T01:37:54.446Z,9.31
2023-04-16T01:40:26.579Z,9.41
2023-04-16T01:42:59.345Z,9.49
2023-04-16T01:45:31.770Z,9.36
2023-04-16T01:48:04.759Z,9.27
2023-04-16T01:50:38.299Z,9.43
2023-04-16T01:53:13.713Z,9.30
2023-04-16T01:55:46.202Z,9.38
2023-04-16T01:58:19.099Z,9.37
2023-04-16T02:00:51.309Z,9.36
2023-04-16T02:03:25.397Z,9.46
2023-04-16T02:06:00.186Z,9.40
2023-04-16T02:08:36.065Z,9.22
2023-04-16T02:11:11.654Z,9.31
2023-04-16T02:16:32.052Z,9.30
2023-04-16T02:19:05.052Z,9.31
2023-04-16T02:21:37.366Z,9.28
2023-04-16T02:24:12.773Z,9.39
2023-04-16T14:04:37.471Z,10.59
2023-04-16T14:07:10.675Z,10.84
2023-04-16T14:09:42.169Z,10.86
2023-04-16T14:12:14.372Z,10.94
2023-04-16T14:14:47.461Z,10.91
2023-04-16T14:17:20.817Z,10.99
2023-04-16T14:19:56.007Z,10.85
2023-04-16T14:22:28.178Z,10.95
2023-04-16T14:24:59.832Z,11.02
2023-04-16T14:27:33.067Z,10.94
2023-04-16T14:30:04.712Z,10.95
2023-04-16T14:32:44.952Z,10.95
2023-04-16T14:35:20.462Z,10.98
2023-04-16T14:37:55.465Z,10.93
2023-04-16T14:40:26.654Z,10.96
2023-04-16T14:42:58.266Z,10.77
2023-04-16T14:45:31.123Z,10.68
2023-04-16T14:48:02.547Z,10.67
2023-04-16T14:50:38.359Z,10.53
2023-04-16T14:53:09.892Z,10.51
2023-04-16T14:55:42.211Z,10.56
2023-04-16T14:58:14.076Z,10.26
2023-04-16T15:00:45.961Z,10.31
2023-04-16T15:03:17.972Z,10.39
2023-04-16T15:05:55.915Z,10.32
2023-04-16T15:08:28.292Z,10.08
2023-04-16T15:11:00.000Z,10.24
2023-04-16T15:13:34.475Z,10.31
2023-04-16T15:16:07.735Z,10.13
2023-04-16T15:18:39.677Z,10.23
2023-04-16T15:21:13.877Z,10.10
2023-04-16T15:23:46.141Z,10.19
2023-04-16T15:26:17.707Z,10.24
2023-04-16T15:28:49.692Z,10.29
2023-04-16T15:31:21.320Z,10.21
2023-04-16T15:33:53.423Z,10.19
2023-04-16T15:36:27.641Z,10.19
2023-04-16T15:38:59.512Z,10.17
2023-04-16T15:41:37.015Z,10.07
2023-04-16T15:44:09.330Z,10.07
2023-04-16T15:46:40.687Z,10.05
2023-04-16T15:49:12.734Z,10.04
2023-04-16T15:51:47.325Z,10.03
2023-04-16T15:54:19.654Z,10.08
2023-04-16T15:56:51.268Z,10.13
2023-04-16T15:59:23.045Z,10.13
2023-04-16T16:01:54.937Z,10.10
2023-04-16T16:04:27.113Z,10.06
2023-04-16T16:07:03.059Z,9.95
2023-04-16T16:09:35.054Z,9.88
2023-04-16T16:12:06.717Z,9.96
2023-04-16T16:14:38.829Z,9.94
2023-04-16T16:17:13.011Z,9.93
2023-04-16T16:19:46.405Z,9.83
2023-04-16T16:22:24.164Z,9.84
2023-04-16T16:24:58.335Z,9.82
2023-04-16T16:27:30.080Z,9.80
2023-04-16T16:30:05.050Z,9.69
2023-04-16T16:32:37.126Z,9.60
2023-04-16T16:35:11.225Z,9.65
2023-04-16T16:37:46.076Z,9.55
2023-04-16T16:40:18.219Z,9.59
2023-04-16T16:42:50.118Z,9.56
2023-04-16T16:45:22.733Z,9.57
2023-04-16T16:47:55.041Z,9.46
2023-04-16T16:50:27.251Z,9.32
2023-04-16T16:53:01.536Z,9.36
2023-04-16T16:55:35.546Z,9.47
2023-04-16T16:58:07.562Z,9.41
2023-04-16T17:00:39.840Z,9.46
2023-04-16T17:03:12.802Z,9.38
2023-04-16T17:05:45.384Z,9.43
2023-04-16T17:08:19.670Z,9.31
2023-04-16T17:10:51.992Z,9.34
2023-04-16T17:13:25.620Z,9.36
2023-04-16T17:15:57.575Z,9.35
2023-04-16T17:18:29.680Z,9.37
2023-04-16T17:21:02.131Z,9.30
2023-04-16T17:23:36.732Z,9.28
2023-04-16T17:26:09.199Z,9.08
2023-04-16T17:28:41.025Z,9.14
2023-04-16T17:31:13.428Z,8.99
2023-04-16T17:33:45.532Z,9.07
2023-04-16T17:36:19.951Z,9.05
2023-04-16T17:38:54.329Z,9.00
2023-04-16T17:41:26.890Z,8.92
2023-04-16T17:43:58.935Z,8.90
2023-04-16T17:46:31.129Z,8.92
2023-04-16T17:49:02.821Z,8.94
2023-04-16T17:51:34.685Z,8.89
2023-04-16T17:54:09.232Z,9.03
2023-04-16T17:56:41.316Z,9.02
2023-04-16T17:59:12.828Z,9.01
2023-04-16T18:01:45.287Z,8.95
2023-04-16T18:04:18.822Z,8.90
2023-04-16T18:06:51.245Z,8.97
2023-04-16T18:09:25.184Z,8.93
2023-04-16T18:11:58.061Z,8.88
2023-04-16T18:14:29.488Z,8.80
2023-04-16T18:17:03.695Z,8.90
2023-04-16T18:19:37.052Z,8.69
2023-04-16T18:22:09.197Z,8.67
2023-04-16T18:24:43.292Z,8.75
2023-04-16T18:27:15.137Z,8.75
2023-04-16T18:29:46.728Z,8.78
2023-04-16T18:32:18.542Z,8.73
2023-04-16T18:34:50.404Z,8.63
2023-04-16T18:37:22.424Z,8.63
2023-04-16T18:39:57.914Z,8.67
2023-04-16T18:42:33.144Z,8.55
2023-04-16T18:45:06.259Z,8.52
2023-04-16T18:47:37.899Z,8.49
2023-04-16T18:50:12.190Z,8.54
2023-04-16T18:52:44.842Z,8.57
2023-04-16T18:55:19.626Z,8.39
2023-04-16T18:57:52.170Z,8.45
2023-04-16T19:00:24.566Z,8.43
2023-04-16T19:02:56.841Z,8.33
2023-04-16T19:05:29.587Z,8.44
2023-04-16T19:08:02.418Z,8.38
2023-04-16T19:10:37.308Z,8.36
2023-04-16T19:13:09.849Z,8.37
2023-04-16T19:15:41.884Z,8.40
2023-04-16T19:18:14.316Z,8.49
2023-04-16T19:20:46.268Z,8.47
2023-04-16T19:23:19.558Z,8.46
2023-04-16T19:25:56.650Z,8.49
2023-04-16T19:28:29.507Z,8.52
2023-04-16T19:31:01.421Z,8.41
2023-04-16T19:33:33.772Z,8.23
2023-04-16T19:36:05.873Z,8.37
2023-04-16T19:38:38.258Z,8.29
2023-04-16T19:41:12.877Z,8.19
2023-04-16T19:43:46.817Z,8.18
2023-04-16T19:46:18.988Z,8.15
2023-04-16T19:48:53.813Z,8.26
2023-04-16T19:51:28.193Z,8.27
2023-04-16T19:54:02.199Z,8.23
2023-04-16T19:56:38.830Z,8.30
2023-04-16T19:59:11.770Z,8.23
2023-04-16T20:01:45.116Z,8.25
2023-04-16T20:04:19.013Z,8.20
2023-04-16T20:06:54.052Z,8.20
2023-04-16T20:09:29.698Z,8.18
2023-04-16T20:12:04.910Z,8.20
2023-04-16T20:14:37.590Z,8.09
2023-04-16T20:17:10.442Z,8.13
2023-04-16T20:19:52.107Z,8.15
2023-04-16T20:22:24.555Z,8.20
2023-04-16T20:24:58.450Z,8.07
2023-04-16T20:27:33.326Z,8.02
2023-04-16T20:30:06.823Z,7.93
2023-04-16T20:32:39.366Z,7.95
2023-04-16T20:35:14.606Z,7.91
2023-04-16T20:37:46.988Z,8.01
2023-04-16T20:40:19.788Z,7.87
2023-04-16T20:42:57.767Z,7.79
2023-04-16T20:45:33.128Z,7.74
2023-04-16T20:48:05.701Z,7.77
2023-04-16T20:50:38.569Z,7.76
2023-04-16T20:53:16.208Z,7.76
2023-04-16T20:55:49.888Z,7.70
2023-04-16T20:58:25.631Z,7.67
2023-04-16T21:00:59.612Z,7.71
2023-04-16T21:03:32.168Z,7.76
2023-04-16T21:06:06.790Z,7.74
2023-04-16T21:08:39.612Z,7.83
2023-04-16T21:11:12.855Z,7.78
2023-04-16T21:13:48.032Z,7.65
2023-04-16T21:16:20.709Z,7.56
2023-04-16T21:18:52.691Z,7.58
2023-04-16T21:21:25.270Z,7.60
2023-04-16T21:23:58.057Z,7.52
2023-04-16T21:26:32.020Z,7.47
2023-04-16T21:29:07.460Z,7.36
2023-04-16T21:31:40.046Z,7.34
2023-04-16T21:34:12.031Z,7.38
2023-04-16T21:36:44.496Z,7.39
2023-04-16T21:39:17.800Z,7.23
2023-04-16T21:41:51.733Z,7.37
2023-04-16T21:44:26.371Z,7.27
2023-04-16T21:46:58.879Z,7.27
2023-04-16T21:49:30.855Z,7.32
2023-04-16T21:52:06.696Z,7.31
2023-04-16T21:54:38.872Z,7.17
2023-04-16T21:57:15.154Z,7.20
2023-04-16T21:59:49.671Z,7.14
2023-04-16T22:02:22.346Z,7.07
2023-04-16T22:04:54.509Z,7.16
2023-04-16T22:07:29.492Z,7.16
2023-04-16T22:10:01.379Z,7.23
2023-04-16T22:12:34.073Z,7.19
2023-04-16T22:15:10.953Z,7.17
2023-04-16T22:17:44.148Z,7.06
2023-04-16T22:20:16.791Z,7.15
2023-04-16T22:22:49.471Z,7.09
2023-04-16T22:25:21.332Z,7.00
2023-04-16T22:27:53.564Z,6.99
2023-04-16T22:30:28.377Z,7.02
2023-04-16T22:33:01.368Z,7.03
2023-04-16T22:35:33.396Z,6.94
2023-04-16T22:38:05.953Z,6.93
2023-04-16T22:40:37.897Z,6.94
2023-04-16T22:43:10.414Z,6.86
2023-04-16T22:45:46.574Z,7.01
2023-04-16T22:48:19.130Z,6.96
2023-04-16T22:50:54.750Z,6.90
2023-04-16T22:53:27.110Z,6.89
2023-04-16T22:55:58.999Z,6.95
2023-04-16T22:58:34.147Z,6.84
2023-04-16T23:01:09.238Z,6.82
2023-04-16T23:03:41.686Z,6.87
2023-04-16T23:06:13.511Z,6.84
2023-04-16T23:08:47.495Z,6.91
2023-04-16T23:11:19.418Z,6.91
2023-04-16T23:13:52.238Z,6.94
2023-04-16T23:16:27.618Z,6.78
2023-04-16T23:19:00.188Z,6.82
2023-04-16T23:21:32.893Z,6.79
2023-04-16T23:24:05.917Z,6.85
2023-04-16T23:26:38.116Z,6.79
2023-04-16T23:29:11.024Z,6.88
2023-04-16T23:31:46.265Z,6.87
2023-04-16T23:34:19.151Z,6.92
2023-04-16T23:36:51.380Z,6.92
2023-04-16T23:39:24.131Z,6.98
2023-04-16T23:41:57.546Z,6.95
2023-04-16T23:44:30.353Z,6.91
2023-04-16T23:47:05.849Z,6.90
2023-04-16T23:49:39.451Z,6.85
2023-04-16T23:52:11.861Z,6.86
2023-04-16T23:54:44.592Z,6.86
2023-04-16T23:57:16.919Z,6.77
2023-04-16T23:59:49.708Z,6.84
